createdAt,value
2022-08-21T00:01:02.695Z,101313.44
2022-08-21T00:03:35.486Z,101318.31
2022-08-21T00:06:03.542Z,101319.72
2022-08-21T00:08:31.748Z,101315.59
2022-08-21T00:11:01.616Z,101311.44
2022-08-21T00:13:29.823Z,101306.44
2022-08-21T00:15:57.903Z,101301.25
2022-08-21T00:18:26.339Z,101302.84
2022-08-21T00:20:54.424Z,101294.00
2022-08-21T00:23:22.510Z,101289.00
2022-08-21T00:25:52.387Z,101292.16
2022-08-21T00:28:21.914Z,101278.81
2022-08-21T00:30:50.131Z,101281.09
2022-08-21T00:33:18.189Z,101272.28
2022-08-21T00:35:46.172Z,101270.91
2022-08-21T00:38:14.476Z,101272.97
2022-08-21T00:40:43.874Z,101270.59
2022-08-21T00:43:13.202Z,101272.69
2022-08-21T00:45:42.677Z,101275.63
2022-08-21T00:48:10.758Z,101271.13
2022-08-21T00:50:43.761Z,101279.66
2022-08-21T00:53:13.057Z,101270.59
2022-08-21T00:55:41.364Z,101275.28
2022-08-21T00:58:10.295Z,101266.28
2022-08-21T01:00:40.595Z,101276.88
2022-08-21T01:03:11.734Z,101281.75
2022-08-21T01:05:40.175Z,101281.22
2022-08-21T01:08:08.622Z,101277.97
2022-08-21T01:10:37.066Z,101278.31
2022-08-21T01:13:10.536Z,101276.75
2022-08-21T01:15:40.901Z,101275.22
2022-08-21T01:18:11.980Z,101283.88
2022-08-21T01:20:43.301Z,101285.97
2022-08-21T01:23:15.703Z,101282.69
2022-08-21T01:25:45.351Z,101281.13
2022-08-21T01:28:15.467Z,101286.00
2022-08-21T01:30:44.869Z,101281.88
2022-08-21T01:33:13.189Z,101288.63
2022-08-21T01:35:41.166Z,101290.88
2022-08-21T01:38:09.835Z,101285.69
2022-08-21T01:40:39.477Z,101290.88
2022-08-21T01:43:08.043Z,101291.25
2022-08-21T01:45:36.137Z,101280.50
2022-08-21T01:48:04.685Z,101290.25
2022-08-21T01:50:32.885Z,101282.25
2022-08-21T01:53:00.843Z,101273.38
2022-08-21T01:55:28.923Z,101276.53
2022-08-21T01:57:59.649Z,101277.75
2022-08-21T02:00:27.866Z,101280.00
2022-08-21T02:03:08.304Z,101276.72
2022-08-21T02:05:36.498Z,101273.41
2022-08-21T02:08:05.293Z,101280.19
2022-08-21T02:10:33.982Z,101273.09
2022-08-21T02:13:03.652Z,101278.78
2022-08-21T02:15:32.661Z,101278.97
2022-08-21T02:18:01.940Z,101270.84
2022-08-21T02:20:31.103Z,101267.56
2022-08-21T02:22:59.266Z,101270.31
2022-08-21T02:25:32.330Z,101275.34
2022-08-21T02:28:06.745Z,101271.91
2022-08-21T02:30:36.149Z,101277.59
2022-08-21T02:33:04.013Z,101270.50
2022-08-21T02:35:32.554Z,101271.72
2022-08-21T02:38:01.593Z,101270.16
2022-08-21T02:40:31.727Z,101270.50
2022-08-21T02:42:59.804Z,101264.25
2022-08-21T02:45:30.398Z,101264.78
2022-08-21T02:48:00.285Z,101273.25
2022-08-21T02:50:29.810Z,101277.44
2022-08-21T02:52:58.347Z,101272.22
2022-08-21T02:55:28.005Z,101278.97
2022-08-21T02:57:56.464Z,101278.47
2022-08-21T03:00:26.336Z,101279.81
2022-08-21T03:02:56.691Z,101276.34
2022-08-21T03:05:25.732Z,101269.41
2022-08-21T03:08:10.505Z,101271.63
2022-08-21T03:10:40.750Z,101271.13
2022-08-21T03:13:09.299Z,101263.16
2022-08-21T03:15:37.503Z,101263.53
2022-08-21T03:18:07.865Z,101266.63
2022-08-21T03:20:36.902Z,101268.84
2022-08-21T03:23:06.165Z,101261.94
2022-08-21T03:25:41.592Z,101266.94
2022-08-21T03:28:13.235Z,101268.31
2022-08-21T03:30:42.324Z,101265.00
2022-08-21T03:33:13.136Z,101275.56
2022-08-21T03:35:44.001Z,101267.75
2022-08-21T03:38:13.778Z,101265.34
2022-08-21T03:40:41.850Z,101262.03
2022-08-21T03:43:10.663Z,101265.13
2022-08-21T03:45:39.799Z,101271.88
2022-08-21T03:48:08.733Z,101266.66
2022-08-21T03:50:41.739Z,101258.69
2022-08-21T03:53:16.758Z,101262.69
2022-08-21T03:55:46.577Z,101257.63
2022-08-21T03:58:16.973Z,101265.06
2022-08-21T04:00:45.809Z,101267.28
2022-08-21T04:03:13.773Z,101277.47
2022-08-21T04:05:43.774Z,101272.25
2022-08-21T04:08:11.853Z,101275.19
2022-08-21T04:10:40.537Z,101276.25
2022-08-21T04:13:11.503Z,101280.03
2022-08-21T04:15:39.698Z,101278.47
2022-08-21T04:18:07.781Z,101286.75
2022-08-21T04:20:35.864Z,101298.84
2022-08-21T04:23:05.399Z,101286.91
2022-08-21T04:25:33.705Z,101299.88
2022-08-21T04:28:03.112Z,101296.25
2022-08-21T04:30:31.433Z,101292.59
2022-08-21T04:33:00.362Z,101296.41
2022-08-21T04:35:29.896Z,101298.13
2022-08-21T04:37:58.097Z,101296.41
2022-08-21T04:40:28.771Z,101292.78
2022-08-21T04:42:59.246Z,101296.41
2022-08-21T04:45:28.349Z,101296.41
2022-08-21T04:47:58.324Z,101295.38
2022-08-21T04:50:30.259Z,101299.00
2022-08-21T04:53:09.486Z,101304.53
2022-08-21T04:55:39.265Z,101302.78
2022-08-21T04:58:07.931Z,101301.91
2022-08-21T05:00:36.018Z,101296.41
2022-08-21T05:03:05.535Z,101300.38
2022-08-21T05:05:33.852Z,101288.44
2022-08-21T05:08:05.656Z,101297.94
2022-08-21T05:10:36.978Z,101295.31
2022-08-21T05:13:08.540Z,101296.53
2022-08-21T05:15:36.741Z,101296.69
2022-08-21T05:18:04.822Z,101302.38
2022-08-21T05:20:35.440Z,101299.63
2022-08-21T05:23:04.345Z,101302.53
2022-08-21T05:25:32.551Z,101305.31
2022-08-21T05:28:02.668Z,101300.66
2022-08-21T05:30:32.208Z,101312.41
2022-08-21T05:33:01.015Z,101310.53
2022-08-21T05:35:29.678Z,101316.56
2022-08-21T05:37:57.876Z,101319.88
2022-08-21T05:40:26.281Z,101323.38
2022-08-21T05:58:57.069Z,101321.06
2022-08-21T06:01:25.416Z,101317.13
2022-08-21T06:03:53.933Z,101320.25
2022-08-21T06:06:25.498Z,101325.28
2022-08-21T06:08:53.831Z,101325.81
2022-08-21T06:11:24.720Z,101313.56
2022-08-21T06:13:58.046Z,101316.84
2022-08-21T06:16:26.466Z,101316.50
2022-08-21T06:18:57.460Z,101317.06
2022-08-21T06:21:27.671Z,101312.19
2022-08-21T06:23:56.749Z,101316.53
2022-08-21T06:26:24.922Z,101316.22
2022-08-21T06:28:52.991Z,101312.06
2022-08-21T06:31:23.973Z,101317.13
2022-08-21T06:33:52.644Z,101316.75
2022-08-21T06:36:21.925Z,101317.13
2022-08-21T06:38:51.783Z,101323.88
2022-08-21T06:41:24.165Z,101321.66
2022-08-21T06:43:54.933Z,101319.25
2022-08-21T06:46:24.938Z,101320.47
2022-08-21T06:48:53.009Z,101317.22
2022-08-21T06:51:21.205Z,101317.56
2022-08-21T06:53:50.009Z,101314.97
2022-08-21T06:56:18.097Z,101317.59
2022-08-21T06:58:46.540Z,101319.66
2022-08-21T07:01:14.530Z,101315.84
2022-08-21T07:03:45.952Z,101315.19
2022-08-21T07:06:14.032Z,101312.19
2022-08-21T07:08:42.699Z,101318.16
2022-08-21T07:11:13.420Z,101310.75
2022-08-21T07:13:41.881Z,101318.91
2022-08-21T07:16:10.071Z,101317.88
2022-08-21T07:18:38.523Z,101319.69
2022-08-21T07:21:09.124Z,101324.28
2022-08-21T07:23:39.000Z,101319.22
2022-08-21T07:26:07.452Z,101315.63
2022-08-21T07:28:35.752Z,101325.81
2022-08-21T07:31:05.647Z,101316.72
2022-08-21T07:33:35.060Z,101318.97
2022-08-21T07:36:03.356Z,101318.56
2022-08-21T07:38:33.012Z,101320.28
2022-08-21T07:41:02.779Z,101316.78
2022-08-21T07:43:31.817Z,101317.97
2022-08-21T07:46:00.125Z,101312.91
2022-08-21T07:48:28.214Z,101316.50
2022-08-21T07:50:56.816Z,101314.63
2022-08-21T07:53:24.976Z,101315.72
2022-08-21T07:55:54.625Z,101317.53
2022-08-21T07:58:22.693Z,101318.84
2022-08-21T08:00:51.162Z,101316.53
2022-08-21T08:03:22.567Z,101312.25
2022-08-21T08:05:57.505Z,101304.53
2022-08-21T08:08:25.588Z,101294.00
2022-08-21T08:10:56.430Z,101299.41
2022-08-21T08:13:24.746Z,101304.56
2022-08-21T08:15:52.824Z,101295.13
2022-08-21T08:18:21.036Z,101299.66
2022-08-21T08:20:49.352Z,101301.38
2022-08-21T08:23:17.678Z,101305.88
2022-08-21T08:25:46.003Z,101297.47
2022-08-21T08:28:16.928Z,101300.25
2022-08-21T08:30:46.114Z,101292.09
2022-08-21T08:33:14.083Z,101294.66
2022-08-21T08:35:42.641Z,101291.88
2022-08-21T08:38:10.876Z,101292.94
2022-08-21T08:40:43.100Z,101301.31
2022-08-21T08:43:14.577Z,101301.31
2022-08-21T08:45:46.736Z,101295.47
2022-08-21T08:48:17.086Z,101297.38
2022-08-21T08:50:47.568Z,101290.88
2022-08-21T08:53:18.081Z,101291.69
2022-08-21T08:55:48.531Z,101296.44
2022-08-21T08:58:19.393Z,101295.09
2022-08-21T09:00:50.553Z,101287.78
2022-08-21T09:03:19.377Z,101291.41
2022-08-21T09:05:49.380Z,101285.75
2022-08-21T09:08:29.819Z,101283.13
2022-08-21T09:11:02.942Z,101284.19
2022-08-21T09:13:38.596Z,101283.50
2022-08-21T09:16:13.996Z,101282.19
2022-08-21T09:18:46.158Z,101284.56
2022-08-21T09:21:18.670Z,101287.97
2022-08-21T09:23:52.402Z,101281.91
2022-08-21T09:26:22.632Z,101275.88
2022-08-21T09:28:53.952Z,101272.81
2022-08-21T09:31:26.246Z,101279.94
2022-08-21T09:34:02.137Z,101269.16
2022-08-21T09:36:34.165Z,101267.81
2022-08-21T09:39:02.601Z,101266.28
2022-08-21T09:41:32.122Z,101275.94
2022-08-21T09:44:00.565Z,101276.38
2022-08-21T09:46:30.335Z,101267.25
2022-08-21T09:48:59.855Z,101276.94
2022-08-21T09:51:32.368Z,101268.91
2022-08-21T09:54:15.716Z,101260.03
2022-08-21T09:57:11.871Z,101257.16
2022-08-21T09:59:40.301Z,101258.44
2022-08-21T10:02:24.944Z,101254.06
2022-08-21T10:04:53.858Z,101255.16
2022-08-21T10:07:24.220Z,101259.81
2022-08-21T10:10:00.588Z,101252.63
2022-08-21T10:12:34.192Z,101250.88
2022-08-21T10:15:09.114Z,101249.06
2022-08-21T10:17:45.706Z,101254.63
2022-08-21T10:20:19.308Z,101238.53
2022-08-21T10:22:49.832Z,101244.97
2022-08-21T10:25:22.086Z,101245.09
2022-08-21T10:27:55.082Z,101240.28
2022-08-21T10:30:29.035Z,101240.19
2022-08-21T10:33:08.537Z,101229.13
2022-08-21T10:35:42.499Z,101239.19
2022-08-21T10:38:48.831Z,101228.31
2022-08-21T10:41:22.737Z,101231.06
2022-08-21T10:43:54.397Z,101234.22
2022-08-21T10:46:38.896Z,101235.72
2022-08-21T10:49:16.330Z,101231.81
2022-08-21T10:52:02.294Z,101232.69
2022-08-21T10:54:38.176Z,101228.75
2022-08-21T10:57:11.894Z,101230.09
2022-08-21T10:59:44.681Z,101230.09
2022-08-21T11:02:17.656Z,101232.06
2022-08-21T11:04:52.699Z,101232.06
2022-08-21T11:07:23.548Z,101229.25
2022-08-21T11:09:54.639Z,101232.69
2022-08-21T11:12:30.267Z,101230.72
2022-08-21T11:15:00.902Z,101236.94
2022-08-21T11:17:37.347Z,101230.22
2022-08-21T11:20:25.376Z,101230.22
2022-08-21T11:23:03.210Z,101222.66
2022-08-21T11:25:36.932Z,101221.56
2022-08-21T11:28:14.460Z,101228.66
2022-08-21T11:30:50.122Z,101229.25
2022-08-21T11:33:30.059Z,101222.56
2022-08-21T11:36:05.321Z,101226.00
2022-08-21T11:38:39.894Z,101224.03
2022-08-21T11:41:15.534Z,101221.00
2022-08-21T11:43:45.405Z,101217.97
2022-08-21T11:46:22.006Z,101212.34
2022-08-21T11:48:56.600Z,101220.53
2022-08-21T11:51:39.676Z,101225.06
2022-08-21T11:54:16.372Z,101215.75
2022-08-21T11:56:48.058Z,101218.56
2022-08-21T11:59:22.018Z,101217.72
2022-08-21T12:01:51.723Z,101216.03
2022-08-21T12:04:23.711Z,101213.22
2022-08-21T12:06:54.899Z,101207.59
2022-08-21T12:09:35.480Z,101207.59
2022-08-21T12:12:06.160Z,101208.41
2022-08-21T12:14:41.706Z,101212.94
2022-08-21T12:17:20.551Z,101210.13
2022-08-21T12:19:59.472Z,101196.69
2022-08-21T12:22:38.968Z,101199.28
2022-08-21T12:25:09.686Z,101195.13
2022-08-21T12:27:46.656Z,101204.16
2022-08-21T12:30:25.743Z,101198.31
2022-08-21T12:33:01.287Z,101194.78
2022-08-21T12:35:34.408Z,101199.06
2022-08-21T12:38:04.770Z,101196.00
2022-08-21T12:40:39.571Z,101187.34
2022-08-21T12:43:14.487Z,101179.75
2022-08-21T12:45:44.846Z,101192.50
2022-08-21T12:48:16.670Z,101192.22
2022-08-21T12:50:51.938Z,101192.00
2022-08-21T12:53:27.455Z,101193.69
2022-08-21T12:56:02.515Z,101200.19
2022-08-21T12:58:31.083Z,101193.69
2022-08-21T13:01:00.815Z,101183.53
2022-08-21T13:03:29.875Z,101192.22
2022-08-21T13:05:58.543Z,101198.13
2022-08-21T13:08:29.023Z,101186.25
2022-08-21T13:11:08.938Z,101194.06
2022-08-21T13:13:46.831Z,101188.91
2022-08-21T13:16:22.315Z,101176.19
2022-08-21T13:18:58.470Z,101182.06
2022-08-21T13:21:30.476Z,101182.91
2022-08-21T13:24:31.722Z,101184.88
2022-08-21T13:26:59.272Z,101180.97
2022-08-21T13:29:30.736Z,101187.44
2022-08-21T13:32:00.123Z,101184.41
2022-08-21T13:34:29.525Z,101175.09
2022-08-21T13:37:01.331Z,101175.97
2022-08-21T13:39:29.653Z,101174.25
2022-08-21T13:41:59.883Z,101172.53
2022-08-21T13:44:36.495Z,101168.22
2022-08-21T13:47:09.849Z,101175.81
2022-08-21T13:49:39.503Z,101165.91
2022-08-21T13:52:16.484Z,101167.00
2022-08-21T13:54:54.612Z,101164.44
2022-08-21T13:57:33.499Z,101159.06
2022-08-21T14:00:15.756Z,101166.63
2022-08-21T14:02:45.859Z,101173.13
2022-08-21T14:05:18.745Z,101162.97
2022-08-21T14:07:48.156Z,101158.19
2022-08-21T14:10:19.105Z,101156.47
2022-08-21T14:12:51.143Z,101153.66
2022-08-21T14:15:20.551Z,101153.66
2022-08-21T14:17:48.639Z,101153.66
2022-08-21T14:20:31.230Z,101153.03
2022-08-21T14:22:59.989Z,101156.13
2022-08-21T14:25:32.793Z,101157.41
2022-08-21T14:28:19.702Z,101156.78
2022-08-21T14:30:48.170Z,101148.00
2022-08-21T14:33:24.516Z,101145.41
2022-08-21T14:35:52.606Z,101143.06
2022-08-21T14:38:21.882Z,101139.41
2022-08-21T14:40:52.365Z,101145.25
2022-08-21T14:43:22.005Z,101140.75
2022-08-21T14:45:50.822Z,101147.22
2022-08-21T14:48:18.886Z,101141.59
2022-08-21T14:50:47.216Z,101123.03
2022-08-21T14:53:15.416Z,101141.59
2022-08-21T14:56:00.786Z,101138.78
2022-08-21T14:58:30.661Z,101140.75
2022-08-21T15:00:59.269Z,101141.59
2022-08-21T15:03:27.658Z,101129.53
2022-08-21T15:05:55.618Z,101141.59
2022-08-21T15:08:23.583Z,101136.81
2022-08-21T15:11:11.177Z,101138.78
2022-08-21T15:13:41.234Z,101137.09
2022-08-21T15:16:11.489Z,101137.09
2022-08-21T15:18:39.799Z,101136.47
2022-08-21T15:21:07.991Z,101135.59
2022-08-21T15:23:36.431Z,101128.28
2022-08-21T15:26:10.631Z,101124.84
2022-08-21T15:28:39.313Z,101127.06
2022-08-21T15:31:09.926Z,101118.84
2022-08-21T15:33:38.498Z,101118.47
2022-08-21T15:36:08.957Z,101118.09
2022-08-21T15:38:37.280Z,101119.19
2022-08-21T15:41:06.083Z,101119.66
2022-08-21T15:43:37.524Z,101121.84
2022-08-21T15:46:06.924Z,101118.69
2022-08-21T15:48:36.573Z,101118.06
2022-08-21T15:51:04.912Z,101121.59
2022-08-21T15:53:36.449Z,101122.06
2022-08-21T15:56:05.498Z,101123.34
2022-08-21T15:58:33.465Z,101117.38
2022-08-21T16:01:02.789Z,101105.72
2022-08-21T16:03:30.840Z,101111.81
2022-08-21T16:06:00.457Z,101110.59
2022-08-21T16:08:28.668Z,101108.25
2022-08-21T16:10:56.757Z,101111.78
2022-08-21T16:13:26.743Z,101113.31
2022-08-21T16:15:55.067Z,101106.47
2022-08-21T16:18:24.466Z,101108.03
2022-08-21T16:20:52.548Z,101107.66
2022-08-21T16:23:25.190Z,101107.03
2022-08-21T16:25:53.531Z,101111.16
2022-08-21T16:28:22.672Z,101114.47
2022-08-21T16:30:52.331Z,101105.63
2022-08-21T16:33:23.287Z,101115.38
2022-08-21T16:35:51.488Z,101103.75
2022-08-21T16:38:19.711Z,101116.50
2022-08-21T16:40:49.560Z,101112.25
2022-08-21T16:43:19.323Z,101111.84
2022-08-21T16:45:47.642Z,101108.91
2022-08-21T16:48:15.866Z,101110.44
2022-08-21T16:50:47.916Z,101119.56
2022-08-21T16:53:21.736Z,101118.31
2022-08-21T16:55:51.613Z,101121.81
2022-08-21T16:58:22.585Z,101116.88
2022-08-21T17:00:50.730Z,101122.34
2022-08-21T17:03:21.493Z,101114.00
2022-08-21T17:05:49.695Z,101120.06
2022-08-21T17:08:17.795Z,101123.53
2022-08-21T17:10:50.311Z,101117.53
2022-08-21T17:13:19.962Z,101115.44
2022-08-21T17:15:47.922Z,101124.28
2022-08-21T17:18:18.024Z,101116.31
2022-08-21T17:20:46.226Z,101116.81
2022-08-21T17:23:14.673Z,101117.25
2022-08-21T17:25:44.916Z,101112.94
2022-08-21T17:28:15.161Z,101117.09
2022-08-21T17:30:46.386Z,101124.00
2022-08-21T17:33:15.043Z,101120.56
2022-08-21T17:35:43.484Z,101122.13
2022-08-21T17:38:14.940Z,101120.41
2022-08-21T17:40:43.962Z,101121.91
2022-08-21T17:43:16.480Z,101124.13
2022-08-21T17:45:46.244Z,101126.28
2022-08-21T17:48:14.453Z,101120.25
2022-08-21T17:50:42.525Z,101125.25
2022-08-21T17:53:10.886Z,101127.84
2022-08-21T17:55:39.183Z,101126.31
2022-08-21T17:58:07.493Z,101123.13
2022-08-21T18:00:35.812Z,101133.06
2022-08-21T18:03:09.074Z,101123.41
2022-08-21T18:05:37.383Z,101128.84
2022-08-21T18:08:05.467Z,101136.81
2022-08-21T18:10:33.787Z,101133.00
2022-08-21T18:13:04.982Z,101131.72
2022-08-21T18:15:33.809Z,101138.00
2022-08-21T18:18:02.824Z,101139.72
2022-08-21T18:20:32.361Z,101141.50
2022-08-21T18:23:01.115Z,101145.84
2022-08-21T18:25:29.951Z,101136.16
2022-08-21T18:27:59.590Z,101140.69
2022-08-21T18:30:27.912Z,101144.34
2022-08-21T18:32:56.659Z,101135.75
2022-08-21T18:35:25.072Z,101144.84
2022-08-21T18:37:54.584Z,101133.41
2022-08-21T18:40:22.831Z,101143.34
2022-08-21T18:42:55.049Z,101144.00
2022-08-21T18:45:28.404Z,101148.53
2022-08-21T18:47:58.176Z,101146.38
2022-08-21T18:50:27.819Z,101143.41
2022-08-21T18:52:58.649Z,101151.38
2022-08-21T18:58:15.262Z,101150.94
2022-08-21T19:00:47.406Z,101156.31
2022-08-21T19:03:23.850Z,101154.19
2022-08-21T19:05:52.797Z,101151.19
2022-08-21T19:08:23.511Z,101160.84
2022-08-21T19:10:52.903Z,101161.50
2022-08-21T19:13:23.038Z,101168.59
2022-08-21T19:15:53.176Z,101165.38
2022-08-21T19:21:13.085Z,101164.72
2022-08-21T19:23:43.443Z,101167.09
2022-08-21T19:26:13.069Z,101167.72
2022-08-21T19:31:34.011Z,101169.84
2022-08-21T19:34:03.607Z,101166.63
2022-08-21T19:36:31.695Z,101172.63
2022-08-21T19:39:02.049Z,101173.94
2022-08-21T19:41:38.759Z,101168.97
2022-08-21T19:44:10.682Z,101173.06
2022-08-21T19:46:41.250Z,101174.56
2022-08-21T19:49:12.614Z,101169.38
2022-08-21T19:51:41.886Z,101174.56
2022-08-21T19:54:15.851Z,101171.09
2022-08-21T19:56:46.452Z,101174.31
2022-08-21T19:59:40.702Z,101175.63
2022-08-21T20:02:10.332Z,101173.25
2022-08-21T20:04:38.898Z,101173.44
2022-08-21T20:07:26.601Z,101170.22
2022-08-21T20:09:56.993Z,101171.50
2022-08-21T20:12:25.358Z,101177.28
2022-08-21T20:14:54.637Z,101174.91
2022-08-21T20:17:23.066Z,101181.81
2022-08-21T20:19:55.117Z,101180.28
2022-08-21T20:22:24.258Z,101181.53
2022-08-21T20:24:52.599Z,101178.13
2022-08-21T20:27:24.529Z,101171.84
2022-08-21T20:29:55.746Z,101178.72
2022-08-21T20:32:24.183Z,101179.16
2022-08-21T20:34:53.802Z,101180.22
2022-08-21T20:37:36.997Z,101177.81
2022-08-21T20:43:00.270Z,101177.59
2022-08-21T20:45:31.511Z,101186.19
2022-08-21T20:48:02.707Z,101177.34
2022-08-21T20:50:37.116Z,101177.78
2022-08-21T20:53:09.918Z,101183.78
2022-08-21T20:55:43.267Z,101184.84
2022-08-21T20:58:19.750Z,101182.44
2022-08-21T21:00:51.898Z,101179.22
2022-08-21T21:03:30.337Z,101185.88
2022-08-21T21:06:01.496Z,101185.41
2022-08-21T21:08:32.957Z,101183.91
2022-08-21T21:11:04.072Z,101183.25
2022-08-21T21:13:38.789Z,101179.81
2022-08-21T21:16:18.222Z,101186.69
2022-08-21T21:18:48.081Z,101179.56
2022-08-21T21:21:19.908Z,101181.69
2022-08-21T21:23:51.428Z,101175.69
2022-08-21T21:26:23.127Z,101180.81
2022-08-21T21:29:01.990Z,101183.97
2022-08-21T21:31:32.832Z,101184.19
2022-08-21T21:34:00.804Z,101183.72
2022-08-21T21:36:31.278Z,101183.06
2022-08-21T21:39:08.601Z,101187.78
2022-08-21T21:44:39.103Z,101188.59
2022-08-21T21:47:11.003Z,101192.44
2022-08-21T21:49:53.853Z,101190.09
2022-08-21T21:52:34.407Z,101182.97
2022-08-21T21:55:07.648Z,101186.16
2022-08-21T21:57:56.609Z,101174.59
2022-08-21T22:00:26.884Z,101176.69
2022-08-21T22:03:00.797Z,101179.88
2022-08-21T22:05:38.496Z,101171.09
2022-08-21T22:08:11.377Z,101179.66
2022-08-21T22:10:44.138Z,101181.97
2022-08-21T22:13:26.266Z,101178.75
2022-08-21T22:15:56.268Z,101181.72
2022-08-21T22:18:27.350Z,101180.19
2022-08-21T22:20:57.465Z,101176.72
2022-08-21T22:23:27.730Z,101180.81
2022-08-21T22:26:00.387Z,101181.19
2022-08-21T22:28:31.086Z,101181.41
2022-08-21T22:31:12.122Z,101179.03
2022-08-21T22:33:42.594Z,101182.88
2022-08-21T22:36:17.634Z,101183.22
2022-08-21T22:38:47.529Z,101189.00
2022-08-21T22:41:21.489Z,101187.50
2022-08-21T22:43:54.367Z,101191.34
2022-08-21T22:46:29.520Z,101193.66
2022-08-21T22:49:01.242Z,101201.16
2022-08-21T22:51:32.462Z,101193.22
2022-08-21T22:54:01.445Z,101196.38
2022-08-21T22:56:31.806Z,101192.94
2022-08-21T22:59:02.779Z,101199.78
2022-08-21T23:01:34.702Z,101195.47
2022-08-21T23:04:14.302Z,101196.53
2022-08-21T23:09:36.744Z,101193.69
2022-08-21T23:12:14.106Z,101194.75
2022-08-21T23:14:54.728Z,101184.84
2022-08-21T23:17:31.820Z,101187.81
2022-08-21T23:20:11.303Z,101190.84
2022-08-21T23:22:47.326Z,101184.59
2022-08-21T23:25:26.904Z,101186.69
2022-08-21T23:27:59.674Z,101189.88
2022-08-21T23:30:38.788Z,101175.31
2022-08-21T23:33:16.723Z,101182.13
2022-08-21T23:36:04.352Z,101178.66
2022-08-21T23:38:37.727Z,101184.44
2022-08-21T23:41:11.387Z,101184.84
2022-08-21T23:43:45.520Z,101183.31
2022-08-21T23:46:33.396Z,101177.94
2022-08-21T23:49:10.017Z,101178.34
2022-08-21T23:51:43.132Z,101180.41
2022-08-21T23:54:22.613Z,101176.97
2022-08-21T23:57:08.200Z,101169.03
2022-08-21T23:59:40.984Z,101174.78
